Terminal Aerodrome Forecast
Issued by NWS Jackson, MS

Home | Current Version | Previous Version | Text Only | Print | Product List | Glossary On
Versions: 1 2 3 4 5 6 7 8 9 10 11 12 13 14 15 16 17 18
000
FTUS44 KMEG 262337
TAFTUP
TAF
KTUP 262337Z 2700/2724 20010KT P6SM SCT025
     FM270100 18005KT P6SM BKN250
     FM271500 19011G18KT P6SM BKN035
     FM271800 21015G28KT 6SM SHRA VCTS SCT015CB OVC050=

USA.gov is the U.S. government's official web portal to all federal, state and local government web resources and services.